Time;durP1;ratioP1;P1;durP2;ratioP2;P2;SDS_P1;SDS_P2;PMS_P1;PMS_P2;Temp;Humidity;BMP_temperature;BMP_pressure;BME280_temperature;BME280_humidity;BME280_pressure;Samples;Min_cycle;Max_cycle;Signal;HPM_P1;HPM_P2
2023/03/07 00:00:42;;;;;;;23.30;14.80;;;;;;;8.56;45.53;99910.23;108094;1289;22018;-66
2023/03/07 00:03:10;;;;;;;21.50;13.80;;;;;;;8.57;45.46;99904.96;108055;1288;21980;-65
2023/03/07 00:05:40;;;;;;;26.20;15.40;;;;;;;8.56;45.27;99899.90;108086;1289;21986;-63
2023/03/07 00:08:06;;;;;;;25.10;15.60;;;;;;;8.49;45.06;99901.34;108043;1288;21993;-64
2023/03/07 00:10:32;;;;;;;23.30;14.60;;;;;;;8.34;44.72;99900.29;107954;1288;22000;-63
2023/03/07 00:13:00;;;;;;;22.50;14.30;;;;;;;8.21;44.78;99899.71;108108;1289;22000;-63
2023/03/07 00:15:25;;;;;;;24.60;15.30;;;;;;;8.09;44.74;99902.80;108027;1289;21986;-62
2023/03/07 00:17:52;;;;;;;24.00;14.90;;;;;;;7.98;44.73;99898.02;108063;1288;21984;-63
2023/03/07 00:20:18;;;;;;;22.70;13.80;;;;;;;7.86;44.63;99897.77;108038;1288;22006;-67
2023/03/07 00:22:45;;;;;;;25.10;14.10;;;;;;;7.80;44.73;99896.27;108065;1288;21986;-65
2023/03/07 00:25:11;;;;;;;27.60;14.60;;;;;;;7.76;44.61;99896.12;108067;1289;22016;-66
2023/03/07 00:27:38;;;;;;;26.10;14.00;;;;;;;7.67;44.53;99894.09;108098;1288;21995;-63
2023/03/07 00:30:11;;;;;;;20.30;13.50;;;;;;;7.62;44.51;99892.91;108066;1289;21989;-66
2023/03/07 00:32:37;;;;;;;22.60;13.60;;;;;;;7.62;44.58;99884.70;108073;1288;21983;-63
2023/03/07 00:35:03;;;;;;;23.40;14.40;;;;;;;7.58;44.28;99882.65;107953;1289;21983;-65
2023/03/07 00:37:29;;;;;;;23.00;15.00;;;;;;;7.52;44.13;99883.21;107315;1283;1004018;-63
2023/03/07 00:39:59;;;;;;;23.50;15.00;;;;;;;7.45;44.47;99884.15;108057;1286;21979;-63
2023/03/07 00:42:24;;;;;;;23.80;14.40;;;;;;;7.43;44.49;99887.13;107959;1289;22000;-63
2023/03/07 00:44:50;;;;;;;21.40;13.80;;;;;;;7.43;44.70;99886.60;108077;1289;22004;-66
2023/03/07 00:47:16;;;;;;;28.80;14.60;;;;;;;7.44;44.83;99886.24;108090;1288;21994;-64
2023/03/07 00:49:42;;;;;;;22.70;13.40;;;;;;;7.49;45.09;99882.90;107358;1288;1002356;-66
2023/03/07 00:52:08;;;;;;;23.60;14.40;;;;;;;7.54;45.22;99876.55;108144;1288;21982;-66
2023/03/07 00:54:34;;;;;;;21.80;14.20;;;;;;;7.62;45.28;99871.09;108099;1288;21988;-63
2023/03/07 00:57:00;;;;;;;20.80;12.60;;;;;;;7.70;45.13;99867.35;108101;1289;21996;-63
2023/03/07 00:59:26;;;;;;;22.70;14.00;;;;;;;7.77;45.23;99858.73;108086;1288;21992;-65
2023/03/07 01:01:52;;;;;;;22.00;13.60;;;;;;;7.85;45.00;99855.34;108062;1288;21993;-63
2023/03/07 01:04:20;;;;;;;20.40;13.00;;;;;;;7.87;45.01;99853.05;108094;1289;21983;-66
2023/03/07 01:06:45;;;;;;;24.10;14.30;;;;;;;7.87;44.73;99849.38;108090;1285;21987;-65
2023/03/07 01:09:12;;;;;;;25.50;14.10;;;;;;;7.84;44.51;99850.29;108062;1277;21988;-63
2023/03/07 01:11:39;;;;;;;24.10;13.50;;;;;;;7.82;44.54;99846.64;108026;1288;21994;-66
2023/03/07 01:14:07;;;;;;;24.30;14.30;;;;;;;7.80;44.48;99847.19;108084;1289;21985;-65
2023/03/07 01:16:34;;;;;;;24.30;14.60;;;;;;;7.82;44.64;99841.23;108105;1288;22040;-67
2023/03/07 01:19:02;;;;;;;27.80;15.50;;;;;;;7.85;44.74;99839.45;108132;1288;21995;-66
2023/03/07 01:21:30;;;;;;;25.60;15.10;;;;;;;7.91;44.86;99836.77;108125;1288;22005;-64
2023/03/07 01:23:56;;;;;;;23.40;14.80;;;;;;;7.97;45.29;99835.99;108033;1288;21987;-63
2023/03/07 01:26:29;;;;;;;30.00;15.80;;;;;;;8.05;45.53;99833.13;107915;1289;21989;-65
2023/03/07 01:28:56;;;;;;;26.70;15.80;;;;;;;8.13;45.53;99831.13;107313;1289;1002484;-63
2023/03/07 01:31:22;;;;;;;27.90;16.30;;;;;;;8.19;45.70;99828.77;108085;1288;22058;-66
2023/03/07 01:33:51;;;;;;;27.10;16.50;;;;;;;8.23;45.70;99827.50;108102;1288;22013;-65
2023/03/07 01:36:27;;;;;;;29.60;17.20;;;;;;;8.28;45.55;99821.52;107380;1289;1003152;-67
2023/03/07 01:38:54;;;;;;;26.20;16.40;;;;;;;8.32;45.64;99819.55;108095;1286;22047;-63
2023/03/07 01:41:20;;;;;;;28.20;16.30;;;;;;;8.35;45.63;99812.88;108144;1288;21983;-66
2023/03/07 01:43:46;;;;;;;25.40;15.00;;;;;;;8.39;45.60;99813.70;107351;1289;1003197;-63
2023/03/07 01:46:18;;;;;;;26.40;15.70;;;;;;;8.41;45.87;99811.03;108053;1289;24316;-66
2023/03/07 01:48:46;;;;;;;33.70;17.90;;;;;;;8.44;45.80;99812.40;108026;1281;21992;-66
2023/03/07 01:51:12;;;;;;;26.60;16.10;;;;;;;8.46;45.95;99808.36;108083;1288;21985;-65
2023/03/07 01:53:37;;;;;;;27.50;16.10;;;;;;;8.49;46.09;99804.86;107983;1289;21996;-67
2023/03/07 01:56:05;;;;;;;26.70;16.10;;;;;;;8.49;46.10;99801.52;107960;1289;21986;-66
2023/03/07 01:58:30;;;;;;;27.40;16.90;;;;;;;8.50;46.22;99799.24;108085;1289;21992;-66
2023/03/07 02:00:56;;;;;;;26.10;16.30;;;;;;;8.55;46.17;99796.73;107879;1289;22043;-64
2023/03/07 02:03:28;;;;;;;27.90;16.30;;;;;;;8.59;46.19;99795.27;107924;1288;21989;-67
2023/03/07 02:05:56;;;;;;;24.70;15.90;;;;;;;8.64;46.61;99793.98;107935;1288;24355;-66
2023/03/07 02:08:23;;;;;;;31.10;17.90;;;;;;;8.66;46.86;99788.89;107944;1289;23637;-66
2023/03/07 02:10:50;;;;;;;27.00;17.70;;;;;;;8.68;47.24;99787.11;108085;1288;22047;-63
2023/03/07 02:13:16;;;;;;;27.70;17.80;;;;;;;8.69;47.40;99790.95;107638;1289;21981;-63
2023/03/07 02:15:49;;;;;;;27.40;17.40;;;;;;;8.68;47.49;99792.02;108075;1289;21986;-66
2023/03/07 02:18:18;;;;;;;28.00;17.40;;;;;;;8.70;48.11;99789.19;108121;1288;21983;-67
2023/03/07 02:21:11;;;;;;;27.70;16.70;;;;;;;8.72;48.01;99788.63;108138;1288;23040;-63
2023/03/07 02:23:55;;;;;;;30.70;19.30;;;;;;;8.69;48.08;99791.30;108066;1289;24344;-66
2023/03/07 02:26:29;;;;;;;28.00;17.60;;;;;;;8.68;48.10;99794.98;108072;1288;21994;-63
2023/03/07 02:29:00;;;;;;;27.40;17.50;;;;;;;8.69;47.90;99789.21;108052;1288;21987;-66
2023/03/07 02:31:26;;;;;;;26.00;17.30;;;;;;;8.69;48.03;99787.80;107907;1288;22023;-66
2023/03/07 02:33:53;;;;;;;31.90;17.90;;;;;;;8.72;48.17;99791.27;108103;1288;21997;-66
2023/03/07 02:36:22;;;;;;;24.80;16.50;;;;;;;8.74;48.23;99792.63;108055;1283;22001;-63
2023/03/07 02:38:49;;;;;;;25.30;16.60;;;;;;;8.76;48.22;99794.70;108052;1289;23105;-63
2023/03/07 02:41:19;;;;;;;27.40;16.80;;;;;;;8.75;48.68;99798.39;108116;1287;21993;-63
2023/03/07 02:43:45;;;;;;;28.60;17.20;;;;;;;8.74;49.25;99797.35;108138;1288;22024;-66
2023/03/07 02:46:10;;;;;;;28.00;17.70;;;;;;;8.75;49.11;99798.73;108087;1289;21993;-63
2023/03/07 02:48:36;;;;;;;27.60;16.50;;;;;;;8.72;49.51;99797.73;108089;1288;22756;-64
2023/03/07 02:51:07;;;;;;;26.00;16.20;;;;;;;8.70;49.45;99800.04;107913;1288;288180;-67
2023/03/07 02:53:33;;;;;;;23.90;15.70;;;;;;;8.70;48.97;99797.41;108080;1282;21998;-63
2023/03/07 02:55:59;;;;;;;27.20;17.40;;;;;;;8.68;49.03;99792.36;108068;1277;21999;-63
2023/03/07 02:58:25;;;;;;;27.00;16.80;;;;;;;8.69;48.46;99789.38;107330;1288;1003067;-66
2023/03/07 03:00:52;;;;;;;29.70;18.10;;;;;;;8.70;48.39;99787.27;108001;1289;21983;-62
2023/03/07 03:03:17;;;;;;;27.00;17.00;;;;;;;8.69;48.38;99786.05;107954;1288;22170;-65
2023/03/07 03:05:43;;;;;;;27.70;17.60;;;;;;;8.68;47.97;99788.52;108031;1277;21986;-62
2023/03/07 03:08:09;;;;;;;28.00;15.50;;;;;;;8.68;47.92;99787.82;107979;1288;24394;-62
2023/03/07 03:10:35;;;;;;;28.70;15.90;;;;;;;8.63;48.32;99789.80;107958;1289;21999;-62
2023/03/07 03:13:04;;;;;;;26.60;16.30;;;;;;;8.58;48.14;99792.15;108019;1288;21977;-65
2023/03/07 03:15:30;;;;;;;29.80;17.10;;;;;;;8.57;47.84;99794.77;108015;1288;21989;-63
2023/03/07 03:17:58;;;;;;;27.40;17.00;;;;;;;8.54;47.53;99794.48;107946;1289;22028;-65
2023/03/07 03:20:24;;;;;;;25.80;15.60;;;;;;;8.52;47.55;99792.94;107975;1281;21983;-65
2023/03/07 03:22:51;;;;;;;27.20;16.60;;;;;;;8.47;47.52;99792.62;107987;1288;21979;-62
2023/03/07 03:25:21;;;;;;;25.30;15.20;;;;;;;8.44;47.36;99791.94;107893;1288;21999;-65
2023/03/07 03:27:47;;;;;;;25.20;16.00;;;;;;;8.40;47.75;99790.61;108088;1288;22000;-62
2023/03/07 03:30:13;;;;;;;28.20;16.70;;;;;;;8.35;47.75;99785.79;107329;1289;1003086;-63
2023/03/07 03:32:47;;;;;;;28.20;17.70;;;;;;;8.28;48.67;99783.58;107985;1289;23454;-63
2023/03/07 03:35:13;;;;;;;27.20;18.00;;;;;;;8.24;48.88;99780.14;107296;1288;1003081;-66
2023/03/07 03:37:39;;;;;;;28.50;17.70;;;;;;;8.23;48.88;99777.88;108042;1289;22031;-66
2023/03/07 03:40:13;;;;;;;29.90;17.20;;;;;;;8.20;49.57;99776.33;108077;1289;21971;-62
2023/03/07 03:42:40;;;;;;;26.60;16.70;;;;;;;8.19;49.45;99775.48;107984;1288;24368;-63
2023/03/07 03:45:08;;;;;;;25.70;16.10;;;;;;;8.21;49.71;99770.74;108097;1289;22041;-66
2023/03/07 03:47:35;;;;;;;28.20;16.10;;;;;;;8.23;49.80;99770.01;108023;1281;22012;-66
2023/03/07 03:50:03;;;;;;;25.80;15.30;;;;;;;8.26;49.72;99765.95;108070;1287;21986;-66
2023/03/07 03:52:29;;;;;;;25.10;15.80;;;;;;;8.29;49.25;99767.31;107243;1280;1002965;-66
2023/03/07 03:54:54;;;;;;;26.00;16.60;;;;;;;8.30;49.77;99764.86;108026;1289;22028;-65
2023/03/07 03:57:23;;;;;;;26.30;16.70;;;;;;;8.32;50.07;99767.45;107983;1289;21983;-63
2023/03/07 03:59:50;;;;;;;25.60;15.30;;;;;;;8.38;49.78;99762.83;108071;1283;22031;-66
2023/03/07 04:02:15;;;;;;;26.70;17.10;;;;;;;8.44;49.66;99763.10;108055;1289;21986;-66
2023/03/07 04:04:41;;;;;;;24.30;14.80;;;;;;;8.48;49.52;99763.92;107968;1289;23099;-63
2023/03/07 04:07:08;;;;;;;26.30;16.60;;;;;;;8.48;49.98;99765.67;107129;1288;1002286;-66
2023/03/07 04:09:34;;;;;;;24.80;15.60;;;;;;;8.53;49.69;99762.14;108024;1286;21986;-66
2023/03/07 04:12:01;;;;;;;28.40;16.80;;;;;;;8.58;49.50;99760.51;108039;1289;21996;-63
2023/03/07 04:14:26;;;;;;;26.40;15.10;;;;;;;8.59;49.77;99761.53;108002;1277;21987;-66
2023/03/07 04:16:52;;;;;;;23.70;15.90;;;;;;;8.60;49.37;99758.02;107978;1288;22022;-64
2023/03/07 04:19:18;;;;;;;26.70;17.70;;;;;;;8.58;49.37;99755.41;108038;1288;21989;-63
2023/03/07 04:21:44;;;;;;;25.50;16.20;;;;;;;8.56;49.53;99752.30;107991;1289;21997;-63
2023/03/07 04:24:11;;;;;;;27.20;16.50;;;;;;;8.57;49.50;99753.00;108065;1288;21988;-67
2023/03/07 04:26:38;;;;;;;27.70;15.70;;;;;;;8.57;49.54;99754.74;107994;1288;22002;-67
2023/03/07 04:29:03;;;;;;;26.60;16.40;;;;;;;8.57;49.67;99756.84;108053;1288;21986;-62
2023/03/07 04:31:29;;;;;;;26.90;16.00;;;;;;;8.58;49.44;99753.52;107988;1287;21981;-66
2023/03/07 04:33:56;;;;;;;24.40;16.10;;;;;;;8.62;49.23;99752.39;108050;1279;21992;-67
2023/03/07 04:36:22;;;;;;;25.20;15.90;;;;;;;8.66;49.11;99757.23;108056;1286;22176;-67
2023/03/07 04:38:48;;;;;;;24.70;15.50;;;;;;;8.70;49.25;99759.27;107861;1289;22907;-67
2023/03/07 04:41:22;;;;;;;23.80;15.00;;;;;;;8.69;48.78;99761.57;108017;1288;21990;-67
2023/03/07 04:43:48;;;;;;;27.20;15.70;;;;;;;8.66;48.69;99760.55;108069;1289;23773;-67
2023/03/07 04:46:14;;;;;;;25.20;15.30;;;;;;;8.63;48.63;99757.09;107293;1289;1003199;-64
2023/03/07 04:48:40;;;;;;;28.60;15.40;;;;;;;8.60;48.65;99753.83;108072;1288;23622;-64
2023/03/07 04:51:06;;;;;;;23.90;14.80;;;;;;;8.60;48.67;99749.11;108104;1288;22063;-64
2023/03/07 04:53:32;;;;;;;24.00;14.20;;;;;;;8.59;48.88;99746.85;108088;1289;21991;-66
2023/03/07 04:56:01;;;;;;;26.40;16.40;;;;;;;8.56;48.98;99742.86;108032;1288;21984;-67
2023/03/07 04:58:27;;;;;;;26.10;16.90;;;;;;;8.54;49.31;99746.39;108113;1289;21986;-64
2023/03/07 05:00:55;;;;;;;27.40;17.60;;;;;;;8.54;49.14;99748.84;108114;1289;22044;-67
2023/03/07 05:03:22;;;;;;;29.20;17.30;;;;;;;8.56;49.25;99745.31;108097;1289;21982;-67
2023/03/07 05:05:48;;;;;;;30.40;19.40;;;;;;;8.59;49.09;99743.52;108042;1288;21976;-64
2023/03/07 05:08:14;;;;;;;37.30;20.70;;;;;;;8.64;49.18;99744.67;108087;1288;21996;-68
2023/03/07 05:10:40;;;;;;;34.70;20.50;;;;;;;8.67;48.96;99745.33;108078;1288;21986;-67
2023/03/07 05:13:09;;;;;;;38.00;22.70;;;;;;;8.71;48.99;99746.48;108082;1288;21988;-67
2023/03/07 05:15:37;;;;;;;39.90;22.40;;;;;;;8.76;48.97;99739.42;108097;1288;21981;-64
2023/03/07 05:18:04;;;;;;;40.80;24.30;;;;;;;8.82;48.97;99734.27;107733;1289;21987;-67
2023/03/07 05:20:32;;;;;;;34.60;20.00;;;;;;;8.84;48.92;99738.59;107910;1283;22034;-68
2023/03/07 05:22:58;;;;;;;29.10;18.40;;;;;;;8.88;48.97;99737.84;107918;1288;22137;-65
2023/03/07 05:25:24;;;;;;;28.80;17.80;;;;;;;8.93;49.20;99737.94;107987;1289;22026;-65
2023/03/07 05:27:50;;;;;;;28.90;18.40;;;;;;;9.00;49.37;99738.70;108098;1288;21998;-64
2023/03/07 05:30:16;;;;;;;27.60;17.20;;;;;;;9.09;49.66;99740.30;108005;1288;21985;-65
2023/03/07 05:32:42;;;;;;;29.70;18.50;;;;;;;9.20;50.01;99744.34;108025;1289;22150;-67
2023/03/07 05:35:09;;;;;;;30.60;18.00;;;;;;;9.31;50.21;99746.24;108039;1276;21985;-65
2023/03/07 05:37:37;;;;;;;31.00;18.50;;;;;;;9.44;49.87;99745.32;107943;1286;23711;-66
2023/03/07 05:40:08;;;;;;;30.90;19.40;;;;;;;9.55;49.71;99740.91;108063;1288;21997;-65
2023/03/07 05:42:34;;;;;;;36.30;20.20;;;;;;;9.67;49.54;99735.10;108040;1287;21988;-67
2023/03/07 05:45:00;;;;;;;30.50;19.50;;;;;;;9.76;50.05;99732.81;108069;1288;21992;-66
2023/03/07 05:47:25;;;;;;;32.60;19.60;;;;;;;9.83;50.19;99734.42;108122;1283;21986;-66
2023/03/07 05:49:52;;;;;;;31.30;19.50;;;;;;;9.95;49.98;99733.84;108004;1289;23729;-66
2023/03/07 05:52:19;;;;;;;30.00;18.30;;;;;;;10.06;49.89;99732.75;108025;1288;21964;-65
2023/03/07 05:54:45;;;;;;;33.80;18.80;;;;;;;10.18;49.76;99731.64;108010;1288;21996;-63
2023/03/07 05:57:11;;;;;;;30.50;18.80;;;;;;;10.29;49.56;99731.76;107848;1286;21992;-66
2023/03/07 05:59:36;;;;;;;30.40;19.40;;;;;;;10.41;49.57;99733.98;108009;1289;23612;-65
2023/03/07 06:02:03;;;;;;;29.50;18.80;;;;;;;10.51;49.60;99733.05;108040;1286;22957;-63
2023/03/07 06:04:29;;;;;;;34.70;21.00;;;;;;;10.61;49.36;99735.46;108013;1287;21981;-65
2023/03/07 06:06:55;;;;;;;29.20;18.20;;;;;;;10.73;49.45;99737.66;108058;1289;21991;-65
2023/03/07 06:09:24;;;;;;;27.30;17.50;;;;;;;10.82;49.61;99736.20;108113;1288;21993;-63
2023/03/07 06:11:51;;;;;;;29.10;18.90;;;;;;;10.92;49.31;99735.64;108139;1288;21987;-64
2023/03/07 06:14:20;;;;;;;30.50;18.30;;;;;;;11.06;49.55;99728.63;107935;1289;21984;-65
2023/03/07 06:16:46;;;;;;;32.10;18.70;;;;;;;11.23;49.64;99724.70;108119;1276;21981;-66
2023/03/07 06:19:12;;;;;;;29.10;19.40;;;;;;;11.40;49.87;99726.02;108154;1289;21979;-65
2023/03/07 06:21:37;;;;;;;29.40;19.70;;;;;;;11.57;49.67;99727.49;108078;1288;21986;-66
2023/03/07 06:24:06;;;;;;;30.20;18.50;;;;;;;11.76;49.53;99719.96;108083;1289;21984;-63
2023/03/07 06:26:32;;;;;;;31.80;18.70;;;;;;;11.96;49.33;99716.94;107885;1288;22103;-64
2023/03/07 06:29:00;;;;;;;29.80;18.70;;;;;;;12.18;48.78;99711.76;107724;1277;21983;-66
2023/03/07 06:31:27;;;;;;;27.50;17.90;;;;;;;12.39;48.36;99711.65;107850;1289;22007;-67
2023/03/07 06:33:52;;;;;;;27.80;18.90;;;;;;;12.55;48.14;99713.48;108123;1288;21987;-67
2023/03/07 06:36:19;;;;;;;32.20;19.50;;;;;;;12.70;47.88;99711.59;108091;1288;22761;-66
2023/03/07 06:38:44;;;;;;;28.10;18.70;;;;;;;12.85;47.79;99713.41;108136;1288;21991;-63
2023/03/07 06:41:10;;;;;;;29.50;18.80;;;;;;;12.96;47.50;99717.28;107964;1288;21988;-63
2023/03/07 06:43:36;;;;;;;27.90;18.80;;;;;;;13.08;47.19;99724.30;107908;1289;23715;-66
2023/03/07 06:46:02;;;;;;;27.60;18.80;;;;;;;13.16;46.80;99726.66;107886;1287;22462;-67
2023/03/07 06:48:29;;;;;;;31.10;18.10;;;;;;;13.20;46.57;99721.77;107925;1289;21987;-64
2023/03/07 06:50:56;;;;;;;24.90;17.00;;;;;;;13.40;46.41;99721.29;107895;1288;21995;-67
2023/03/07 06:53:22;;;;;;;26.70;17.00;;;;;;;13.53;46.01;99721.04;108075;1289;21991;-66
2023/03/07 06:55:49;;;;;;;25.70;17.10;;;;;;;13.69;45.61;99714.66;108242;1289;21986;-67
2023/03/07 06:58:15;;;;;;;28.10;17.70;;;;;;;13.84;44.78;99715.02;108054;1287;22024;-65
2023/03/07 07:00:41;;;;;;;30.40;17.60;;;;;;;13.97;44.56;99709.77;107992;1286;21980;-68
2023/03/07 07:03:11;;;;;;;26.80;17.30;;;;;;;14.16;44.44;99709.74;108032;1289;21983;-65
2023/03/07 07:05:37;;;;;;;24.30;15.90;;;;;;;14.33;43.83;99705.77;108069;1287;23741;-64
2023/03/07 07:08:02;;;;;;;28.80;16.70;;;;;;;14.45;43.54;99705.65;108104;1289;21995;-63
2023/03/07 07:10:28;;;;;;;25.60;17.10;;;;;;;14.61;43.66;99698.49;108101;1276;21989;-66
2023/03/07 07:12:55;;;;;;;33.60;17.80;;;;;;;14.69;43.58;99699.77;108071;1283;23052;-67
2023/03/07 07:15:23;;;;;;;26.60;16.20;;;;;;;14.81;43.90;99694.75;108085;1289;22012;-66
2023/03/07 07:17:51;;;;;;;25.40;15.90;;;;;;;14.95;43.69;99687.80;108062;1288;21988;-65
2023/03/07 07:20:17;;;;;;;24.00;16.90;;;;;;;15.11;43.48;99685.39;107853;1289;21987;-65
2023/03/07 07:22:43;;;;;;;23.30;15.80;;;;;;;15.15;42.80;99690.36;107351;1288;1002429;-64
2023/03/07 07:25:09;;;;;;;26.70;17.80;;;;;;;15.13;42.34;99688.29;108085;1286;21990;-64
2023/03/07 07:27:36;;;;;;;21.90;15.40;;;;;;;14.80;41.32;99692.13;108071;1288;21993;-65
2023/03/07 07:30:03;;;;;;;24.40;14.80;;;;;;;14.66;41.13;99691.09;108093;1289;21983;-64
2023/03/07 07:32:32;;;;;;;24.40;15.40;;;;;;;14.66;41.24;99694.81;108088;1288;23721;-65
2023/03/07 07:34:57;;;;;;;27.50;16.40;;;;;;;14.43;41.71;99697.96;108202;1289;22514;-64
2023/03/07 07:37:23;;;;;;;24.00;15.60;;;;;;;14.21;42.65;99702.70;108018;1289;22076;-64
2023/03/07 07:39:50;;;;;;;23.90;15.30;;;;;;;14.34;43.41;99699.19;108036;1289;21991;-63
2023/03/07 07:42:15;;;;;;;22.30;13.70;;;;;;;14.43;43.99;99702.23;108062;1288;21948;-65
2023/03/07 07:44:42;;;;;;;20.70;13.50;;;;;;;14.64;44.32;99702.84;108037;1289;21994;-64
2023/03/07 07:47:08;;;;;;;20.00;14.60;;;;;;;14.67;44.80;99705.52;108056;1289;21989;-64
2023/03/07 07:49:35;;;;;;;23.20;14.50;;;;;;;14.81;44.82;99703.59;108115;1288;22049;-65
2023/03/07 07:52:00;;;;;;;24.20;14.80;;;;;;;14.81;45.42;99704.95;108042;1289;22179;-63
2023/03/07 07:54:27;;;;;;;21.50;13.80;;;;;;;14.84;46.13;99705.02;108074;1288;21995;-64
2023/03/07 07:56:52;;;;;;;19.40;13.60;;;;;;;15.02;46.18;99704.30;108049;1288;21987;-65
2023/03/07 07:59:20;;;;;;;22.00;13.90;;;;;;;15.06;47.06;99702.36;108096;1288;21991;-64
2023/03/07 08:01:46;;;;;;;22.60;13.70;;;;;;;15.22;47.19;99700.84;108041;1288;21988;-63
2023/03/07 08:04:11;;;;;;;22.30;13.40;;;;;;;15.44;47.19;99696.89;107946;1288;21997;-62
2023/03/07 08:06:38;;;;;;;21.60;13.80;;;;;;;15.68;46.75;99692.64;108083;1288;21983;-63
2023/03/07 08:09:04;;;;;;;20.40;13.50;;;;;;;15.72;46.67;99697.43;108066;1288;21986;-64
2023/03/07 08:11:33;;;;;;;21.70;12.90;;;;;;;15.69;46.20;99701.80;108061;1283;21991;-65
2023/03/07 08:14:01;;;;;;;21.50;13.10;;;;;;;15.84;46.23;99702.59;108056;1289;21989;-63
2023/03/07 08:16:27;;;;;;;22.00;13.20;;;;;;;15.90;46.09;99705.35;108082;1287;21985;-65
2023/03/07 08:18:54;;;;;;;19.70;12.50;;;;;;;16.06;45.63;99705.17;108027;1288;22011;-65
2023/03/07 08:21:20;;;;;;;21.70;13.30;;;;;;;15.84;45.76;99708.76;108062;1289;21997;-63
2023/03/07 08:23:46;;;;;;;19.30;12.50;;;;;;;15.80;46.03;99708.08;107953;1289;21996;-63
2023/03/07 08:26:14;;;;;;;19.80;12.00;;;;;;;15.79;46.37;99701.20;108076;1288;22019;-65
2023/03/07 08:28:41;;;;;;;21.30;13.20;;;;;;;15.84;46.39;99691.63;108120;1287;21986;-65
2023/03/07 08:31:13;;;;;;;20.10;13.50;;;;;;;15.98;46.21;99687.27;108066;1288;22056;-63
2023/03/07 08:33:39;;;;;;;20.20;13.80;;;;;;;16.07;46.36;99692.73;108059;1289;21985;-66
2023/03/07 08:36:06;;;;;;;20.00;13.60;;;;;;;16.13;46.73;99691.03;108021;1288;21987;-63
2023/03/07 08:38:32;;;;;;;19.50;12.80;;;;;;;16.17;46.31;99687.10;107969;1289;21991;-63
2023/03/07 08:40:59;;;;;;;20.60;13.20;;;;;;;16.27;45.89;99685.07;108019;1288;24376;-64
2023/03/07 08:43:27;;;;;;;22.40;13.30;;;;;;;16.35;46.07;99682.37;108033;1289;23464;-63
2023/03/07 08:45:56;;;;;;;20.20;14.70;;;;;;;16.40;45.91;99674.71;108068;1288;22209;-66
2023/03/07 08:48:22;;;;;;;21.00;13.90;;;;;;;16.45;46.28;99673.44;108090;1289;22042;-63
2023/03/07 08:50:47;;;;;;;26.60;16.30;;;;;;;16.46;45.11;99677.63;108074;1288;21986;-67
2023/03/07 08:53:14;;;;;;;23.50;14.50;;;;;;;16.60;43.89;99682.65;108038;1289;21986;-67
2023/03/07 08:55:40;;;;;;;21.70;14.80;;;;;;;16.71;43.16;99684.55;108025;1289;21996;-65
2023/03/07 08:58:09;;;;;;;22.30;15.30;;;;;;;16.74;43.03;99687.64;108000;1283;21992;-65
2023/03/07 09:00:36;;;;;;;23.30;14.80;;;;;;;16.74;43.01;99684.07;108072;1281;21993;-67
2023/03/07 09:03:03;;;;;;;21.50;15.50;;;;;;;16.66;43.33;99672.75;108066;1289;21988;-66
2023/03/07 09:05:29;;;;;;;21.70;14.90;;;;;;;16.75;43.21;99665.39;108094;1288;21983;-64
2023/03/07 09:07:55;;;;;;;22.00;15.50;;;;;;;16.68;43.16;99661.68;108042;1289;22050;-66
2023/03/07 09:10:22;;;;;;;27.00;15.80;;;;;;;16.81;43.15;99657.00;108036;1288;21999;-66
2023/03/07 09:12:49;;;;;;;22.40;14.80;;;;;;;16.96;43.50;99650.41;107358;1288;1001942;-67
2023/03/07 09:15:16;;;;;;;22.80;14.40;;;;;;;17.08;43.46;99641.29;108110;1288;21980;-67
2023/03/07 09:17:43;;;;;;;24.00;14.60;;;;;;;17.06;43.31;99639.80;108203;1288;23718;-65
2023/03/07 09:20:15;;;;;;;29.10;18.90;;;;;;;17.05;43.35;99640.04;108038;1289;22008;-66
2023/03/07 09:22:41;;;;;;;21.80;15.80;;;;;;;17.22;43.42;99641.83;108087;1288;23742;-66
2023/03/07 09:25:07;;;;;;;24.00;15.80;;;;;;;17.45;43.83;99630.92;107984;1288;22367;-65
2023/03/07 09:27:33;;;;;;;23.90;17.40;;;;;;;17.60;43.79;99626.02;108099;1289;22019;-67
2023/03/07 09:29:59;;;;;;;24.80;17.10;;;;;;;17.83;44.04;99616.80;107991;1289;22044;-67
2023/03/07 09:32:26;;;;;;;20.50;14.90;;;;;;;17.97;43.37;99617.31;108068;1289;21987;-65
2023/03/07 09:34:55;;;;;;;24.50;16.40;;;;;;;18.00;42.76;99613.45;107998;1283;21985;-66
2023/03/07 09:37:20;;;;;;;20.60;14.80;;;;;;;18.06;42.24;99609.74;108043;1288;21996;-64
2023/03/07 09:39:50;;;;;;;23.30;16.00;;;;;;;18.02;42.47;99607.10;108080;1289;23136;-66
2023/03/07 09:42:43;;;;;;;23.40;15.40;;;;;;;18.13;42.51;99604.19;108068;1289;21993;-65
2023/03/07 09:45:23;;;;;;;22.50;15.50;;;;;;;18.24;42.58;99599.88;108009;1288;22454;-65
2023/03/07 09:48:34;;;;;;;22.80;14.50;;;;;;;18.16;40.45;99603.31;108046;1288;21984;-66
2023/03/07 09:51:14;;;;;;;19.60;13.70;;;;;;;17.92;39.10;99606.23;108050;1280;21998;-64
2023/03/07 09:53:50;;;;;;;18.00;13.40;;;;;;;17.90;39.61;99600.11;108085;1289;21989;-64
2023/03/07 09:56:41;;;;;;;22.30;14.40;;;;;;;17.75;39.14;99600.20;108094;1288;21991;-64
2023/03/07 09:59:21;;;;;;;19.40;12.60;;;;;;;17.73;38.24;99597.15;108029;1287;21989;-65
2023/03/07 10:02:24;;;;;;;22.00;13.10;;;;;;;17.78;38.12;99597.77;108029;1289;21991;-66
2023/03/07 10:04:56;;;;;;;17.40;13.10;;;;;;;17.92;38.31;99593.95;107952;1289;22048;-66
2023/03/07 10:07:23;;;;;;;20.70;14.70;;;;;;;18.22;38.82;99582.02;107996;1289;21986;-68
2023/03/07 10:10:00;;;;;;;20.00;13.50;;;;;;;18.37;38.51;99584.55;107975;1289;22008;-67
2023/03/07 10:12:45;;;;;;;32.50;17.90;;;;;;;18.50;38.84;99572.46;107862;1288;21986;-64
2023/03/07 10:15:20;;;;;;;22.10;14.30;;;;;;;18.51;38.59;99560.11;107977;1288;21986;-64
2023/03/07 10:17:52;;;;;;;45.30;22.80;;;;;;;18.39;38.05;99563.33;107953;1288;22030;-68
2023/03/07 10:20:43;;;;;;;45.90;22.80;;;;;;;18.34;38.32;99555.09;108012;1289;21998;-68
2023/03/07 10:23:31;;;;;;;21.10;14.40;;;;;;;18.31;37.95;99548.34;108054;1288;21987;-65
2023/03/07 10:26:15;;;;;;;18.40;13.10;;;;;;;18.32;37.84;99544.33;106489;1289;1002822;-65
2023/03/07 10:28:41;;;;;;;24.70;14.80;;;;;;;18.43;37.73;99539.27;108002;1288;23729;-65
2023/03/07 10:31:14;;;;;;;19.40;13.40;;;;;;;18.59;37.97;99534.09;108037;1288;21987;-64
2023/03/07 10:33:44;;;;;;;20.60;14.10;;;;;;;18.86;38.16;99530.00;108406;1288;22006;-68
2023/03/07 10:36:14;;;;;;;19.10;12.80;;;;;;;19.07;37.61;99526.65;108103;1288;21982;-67
2023/03/07 10:38:58;;;;;;;21.90;13.90;;;;;;;19.00;36.76;99526.13;107977;1288;21987;-67
2023/03/07 10:41:25;;;;;;;27.90;15.90;;;;;;;19.06;36.72;99526.70;107840;1289;21988;-64
2023/03/07 10:43:52;;;;;;;53.70;28.60;;;;;;;19.14;36.64;99523.73;107867;1289;21992;-64
2023/03/07 10:46:22;;;;;;;28.00;17.10;;;;;;;19.28;36.96;99518.78;108039;1288;21998;-64
2023/03/07 10:49:23;;;;;;;20.20;13.30;;;;;;;19.18;36.34;99519.38;107856;1289;22037;-64
2023/03/07 10:51:59;;;;;;;34.80;17.70;;;;;;;19.26;36.75;99518.03;107906;1289;23059;-64
2023/03/07 10:54:32;;;;;;;20.30;13.10;;;;;;;19.14;36.47;99519.46;107994;1288;22166;-64
2023/03/07 10:57:11;;;;;;;77.20;32.40;;;;;;;19.16;36.73;99510.83;107288;1289;1003017;-67
2023/03/07 10:59:51;;;;;;;33.10;18.90;;;;;;;19.19;36.92;99507.77;108065;1289;22154;-64
2023/03/07 11:02:28;;;;;;;28.60;16.00;;;;;;;19.29;37.03;99500.23;108163;1288;22316;-64
2023/03/07 11:04:53;;;;;;;45.10;25.70;;;;;;;19.26;36.92;99496.47;108057;1289;22861;-65
2023/03/07 11:07:28;;;;;;;21.60;14.10;;;;;;;19.31;37.04;99488.70;108061;1288;21982;-63
2023/03/07 11:09:56;;;;;;;21.00;13.60;;;;;;;19.24;36.88;99480.98;108080;1288;22416;-64
2023/03/07 11:12:27;;;;;;;68.10;32.60;;;;;;;19.11;36.90;99482.49;107876;1289;21997;-66
2023/03/07 11:14:56;;;;;;;29.50;14.40;;;;;;;19.04;37.04;99485.42;107967;1289;21964;-67
2023/03/07 11:17:30;;;;;;;31.60;15.60;;;;;;;18.86;37.03;99484.72;107918;1289;22846;-63